createdAt,value
2022-10-13T00:00:51.690Z,18.40
2022-10-13T00:03:54.362Z,18.52
2022-10-13T00:06:57.926Z,19.58
2022-10-13T00:10:01.599Z,18.75
2022-10-13T00:13:04.491Z,18.87
2022-10-13T00:16:07.971Z,18.57
2022-10-13T00:19:14.879Z,19.05
2022-10-13T00:22:17.947Z,18.60
2022-10-13T00:25:21.093Z,18.35
2022-10-13T00:28:24.751Z,18.75
2022-10-13T00:31:30.775Z,17.62
2022-10-13T00:34:34.306Z,18.45
2022-10-13T00:37:36.632Z,18.92
2022-10-13T00:40:49.159Z,18.65
2022-10-13T00:44:36.079Z,18.08
2022-10-13T00:47:51.495Z,17.95
2022-10-13T00:50:54.344Z,17.87
2022-10-13T00:53:58.844Z,19.43
2022-10-13T00:57:03.921Z,18.58
2022-10-13T01:00:07.544Z,18.17
2022-10-13T01:03:09.816Z,19.27
2022-10-13T01:06:12.831Z,18.92
2022-10-13T01:09:15.216Z,18.83
2022-10-13T01:12:45.012Z,18.33
2022-10-13T01:16:02.211Z,18.65
2022-10-13T01:19:27.550Z,17.65
2022-10-13T01:23:05.981Z,18.37
2022-10-13T01:26:46.049Z,17.87
2022-10-13T01:29:58.348Z,18.45
2022-10-13T01:33:09.898Z,18.42
2022-10-13T01:36:21.311Z,17.87
2022-10-13T01:39:41.644Z,18.25
2022-10-13T01:43:04.597Z,18.00
2022-10-13T01:46:16.357Z,18.77
2022-10-13T01:49:24.311Z,19.20
2022-10-13T01:52:35.272Z,18.52
2022-10-13T01:55:37.501Z,19.70
2022-10-13T01:58:40.418Z,18.65
2022-10-13T02:02:17.609Z,19.65
2022-10-13T02:05:49.125Z,19.15
2022-10-13T02:09:14.286Z,19.98
2022-10-13T02:12:23.851Z,18.80
2022-10-13T02:15:51.184Z,18.48
2022-10-13T02:18:56.249Z,17.52
2022-10-13T02:21:58.891Z,18.33
2022-10-13T02:25:01.430Z,18.15
2022-10-13T02:28:04.783Z,19.40
2022-10-13T02:31:10.614Z,19.33
2022-10-13T02:34:13.825Z,18.42
2022-10-13T02:37:17.014Z,18.62
2022-10-13T02:40:19.358Z,22.27
2022-10-13T02:43:21.891Z,19.42
2022-10-13T02:46:24.151Z,19.17
2022-10-13T02:49:26.764Z,19.00
2022-10-13T02:52:29.036Z,19.08
2022-10-13T02:55:32.026Z,19.10
2022-10-13T02:58:35.354Z,20.15
2022-10-13T03:01:41.420Z,18.67
2022-10-13T03:04:43.816Z,19.00
2022-10-13T03:07:46.289Z,18.30
2022-10-13T03:10:48.560Z,18.42
2022-10-13T03:13:51.155Z,19.45
2022-10-13T03:16:53.454Z,17.83
2022-10-13T03:19:56.045Z,18.73
2022-10-13T03:22:58.227Z,18.67
2022-10-13T03:26:00.846Z,26.08
2022-10-13T03:29:03.362Z,21.70
2022-10-13T03:32:05.883Z,19.87
2022-10-13T03:35:08.554Z,19.98
2022-10-13T03:38:11.112Z,19.23
2022-10-13T03:41:16.933Z,21.77
2022-10-13T03:44:19.888Z,20.48
2022-10-13T03:47:22.740Z,18.17
2022-10-13T03:50:25.264Z,20.00
2022-10-13T03:53:28.599Z,18.83
2022-10-13T03:56:31.274Z,18.02
2022-10-13T03:59:36.759Z,18.80
2022-10-13T04:02:39.712Z,19.05
2022-10-13T04:05:42.911Z,18.48
2022-10-13T04:08:45.147Z,18.83
2022-10-13T04:11:51.164Z,17.65
2022-10-13T04:14:53.395Z,18.30
2022-10-13T04:17:55.940Z,17.60
2022-10-13T04:20:58.511Z,18.52
2022-10-13T04:24:02.144Z,19.05
2022-10-13T04:27:04.437Z,19.35
2022-10-13T04:30:07.495Z,18.25
2022-10-13T04:33:09.968Z,18.62
2022-10-13T04:36:14.358Z,18.48
2022-10-13T04:39:16.548Z,18.83
2022-10-13T04:42:19.616Z,17.85
2022-10-13T04:45:22.050Z,18.48
2022-10-13T04:48:24.846Z,18.10
2022-10-13T04:51:27.293Z,18.52
2022-10-13T04:54:29.795Z,17.60
2022-10-13T04:57:32.086Z,17.95
2022-10-13T05:00:34.962Z,18.95
2022-10-13T05:03:37.262Z,18.12
2022-10-13T05:10:06.447Z,17.42
2022-10-13T05:13:10.232Z,18.75
2022-10-13T05:16:15.008Z,18.67
2022-10-13T05:19:20.482Z,18.27
2022-10-13T05:22:26.484Z,18.95
2022-10-13T05:25:32.979Z,18.77
2022-10-13T05:28:36.593Z,20.55
2022-10-13T05:31:40.251Z,19.50
2022-10-13T05:34:42.642Z,19.73
2022-10-13T05:37:45.131Z,19.40
2022-10-13T05:40:47.408Z,19.42
2022-10-13T05:43:53.317Z,20.02
2022-10-13T05:46:56.337Z,20.77
2022-10-13T05:50:00.930Z,20.75
2022-10-13T05:53:03.289Z,20.73
2022-10-13T05:56:12.850Z,18.87
2022-10-13T05:59:23.347Z,20.58
2022-10-13T06:02:36.247Z,19.73
2022-10-13T06:05:40.712Z,19.80
2022-10-13T06:08:43.056Z,20.20
2022-10-13T06:11:46.280Z,20.83
2022-10-13T06:14:48.975Z,21.87
2022-10-13T06:17:54.298Z,20.35
2022-10-13T06:20:56.552Z,21.40
2022-10-13T06:23:59.059Z,19.15
2022-10-13T06:27:01.280Z,20.77
2022-10-13T06:30:04.400Z,19.77
2022-10-13T06:33:06.674Z,20.15
2022-10-13T06:36:10.615Z,18.85
2022-10-13T06:39:13.119Z,19.85
2022-10-13T06:42:17.574Z,19.85
2022-10-13T06:45:20.105Z,18.52
2022-10-13T06:48:22.593Z,18.65
2022-10-13T06:51:24.880Z,18.27
2022-10-13T06:54:27.634Z,19.65
2022-10-13T06:57:29.878Z,19.42
2022-10-13T07:00:32.761Z,18.98
2022-10-13T07:03:35.794Z,19.35
2022-10-13T07:06:39.180Z,18.98
2022-10-13T07:09:41.367Z,20.33
2022-10-13T07:12:43.841Z,18.75
2022-10-13T07:15:46.346Z,19.40
2022-10-13T07:18:49.228Z,18.62
2022-10-13T07:21:51.851Z,19.92
2022-10-13T07:24:55.224Z,18.35
2022-10-13T07:27:59.257Z,17.87
2022-10-13T07:31:07.854Z,18.02
2022-10-13T07:34:13.093Z,15.95
2022-10-13T07:37:15.606Z,16.90
2022-10-13T07:40:17.825Z,14.98
2022-10-13T07:43:20.303Z,16.50
2022-10-13T07:46:23.268Z,15.50
2022-10-13T07:49:25.777Z,10.68
2022-10-13T07:52:28.044Z,9.57
2022-10-13T07:55:30.696Z,11.32
2022-10-13T07:58:36.142Z,11.10
2022-10-13T08:01:38.690Z,11.45
2022-10-13T08:04:47.929Z,11.67
2022-10-13T08:07:52.385Z,11.07
2022-10-13T08:11:10.619Z,11.45
2022-10-13T08:14:14.640Z,12.45
2022-10-13T08:17:17.826Z,12.05
2022-10-13T08:20:20.229Z,11.57
2022-10-13T08:23:22.735Z,12.57
2022-10-13T08:26:28.555Z,11.68
2022-10-13T08:29:31.222Z,12.30
2022-10-13T08:32:33.583Z,10.15
2022-10-13T08:35:36.043Z,10.83
2022-10-13T08:38:38.301Z,10.80
2022-10-13T08:41:46.337Z,10.10
2022-10-13T08:48:23.135Z,10.00
2022-10-13T08:51:25.431Z,11.05
2022-10-13T08:54:28.134Z,10.13
2022-10-13T08:57:30.725Z,10.85
2022-10-13T09:00:33.239Z,9.90
2022-10-13T09:03:52.764Z,10.13
2022-10-13T09:07:03.206Z,10.40
2022-10-13T09:10:07.364Z,10.82
2022-10-13T09:13:10.712Z,9.98
2022-10-13T09:16:13.052Z,10.02
2022-10-13T09:19:32.064Z,9.27
2022-10-13T09:22:39.083Z,9.77
2022-10-13T09:25:49.467Z,10.27
2022-10-13T09:28:53.067Z,9.68
2022-10-13T09:32:15.208Z,8.35
2022-10-13T09:35:23.732Z,8.85
2022-10-13T09:38:30.234Z,7.87
2022-10-13T09:41:34.015Z,8.57
2022-10-13T09:44:36.655Z,8.43
2022-10-13T09:47:39.546Z,8.68
2022-10-13T09:50:49.642Z,7.65
2022-10-13T09:53:52.487Z,7.45
2022-10-13T09:57:01.444Z,8.02
2022-10-13T10:00:19.279Z,7.57
2022-10-13T10:03:33.732Z,7.43
2022-10-13T10:06:37.243Z,7.40
2022-10-13T10:09:44.908Z,6.45
2022-10-13T10:12:47.987Z,6.97
2022-10-13T10:16:00.303Z,6.73
2022-10-13T10:19:16.603Z,7.30
2022-10-13T10:23:13.555Z,7.53
2022-10-13T10:26:25.013Z,7.80
2022-10-13T10:29:49.165Z,6.30
2022-10-13T10:32:54.671Z,7.37
2022-10-13T10:36:16.772Z,6.32
2022-10-13T10:39:46.547Z,7.05
2022-10-13T10:43:04.736Z,7.22
2022-10-13T10:46:24.665Z,6.90
2022-10-13T10:49:32.610Z,6.72
2022-10-13T10:52:57.717Z,7.20
2022-10-13T10:56:37.451Z,7.80
2022-10-13T10:59:40.292Z,6.95
2022-10-13T11:03:04.991Z,6.53
2022-10-13T11:06:16.446Z,5.87
2022-10-13T11:09:41.513Z,5.68
2022-10-13T11:12:52.911Z,6.37
2022-10-13T11:15:56.045Z,5.75
2022-10-13T11:19:05.940Z,6.35
2022-10-13T11:22:17.007Z,6.32
2022-10-13T11:25:40.644Z,6.37
2022-10-13T11:31:53.397Z,6.80
2022-10-13T11:35:13.424Z,6.43
2022-10-13T11:38:38.169Z,7.22
2022-10-13T11:42:03.331Z,6.97
2022-10-13T11:45:34.667Z,7.43
2022-10-13T11:49:01.986Z,7.40
2022-10-13T11:52:23.003Z,6.85
2022-10-13T11:55:53.736Z,6.53
2022-10-13T11:58:55.961Z,7.85
2022-10-13T12:02:18.985Z,7.83
2022-10-13T12:05:25.322Z,8.00
2022-10-13T12:08:29.484Z,7.60
2022-10-13T12:11:35.480Z,8.00
2022-10-13T12:14:41.060Z,7.60
2022-10-13T12:17:44.496Z,7.90
2022-10-13T12:20:56.647Z,8.07
2022-10-13T12:24:09.828Z,7.18
2022-10-13T12:27:21.578Z,7.30
2022-10-13T12:30:37.700Z,7.60
2022-10-13T12:33:39.972Z,7.75
2022-10-13T12:36:45.357Z,7.10
2022-10-13T12:39:48.506Z,7.80
2022-10-13T12:42:51.703Z,7.93
2022-10-13T12:45:56.395Z,7.43
2022-10-13T12:49:05.541Z,7.68
2022-10-13T12:52:16.799Z,7.60
2022-10-13T12:55:21.578Z,7.75
2022-10-13T12:58:30.698Z,7.43
2022-10-13T13:01:35.178Z,7.20
2022-10-13T13:04:37.370Z,7.72
2022-10-13T13:07:39.927Z,7.97
2022-10-13T13:10:54.988Z,7.60
2022-10-13T13:14:22.525Z,7.07
2022-10-13T13:17:56.590Z,6.93
2022-10-13T13:20:55.302Z,8.27
2022-10-13T13:23:57.598Z,7.50
2022-10-13T13:27:01.998Z,7.73
2022-10-13T13:30:05.014Z,7.80
2022-10-13T13:33:09.067Z,7.28
2022-10-13T13:36:20.014Z,7.90
2022-10-13T13:39:26.659Z,7.72
2022-10-13T13:42:29.338Z,7.47
2022-10-13T13:45:33.814Z,7.80
2022-10-13T13:48:37.283Z,8.18
2022-10-13T13:51:39.981Z,7.77
2022-10-13T13:54:42.302Z,8.48
2022-10-13T13:57:44.877Z,9.77
2022-10-13T14:00:47.368Z,8.35
2022-10-13T14:03:49.852Z,7.93
2022-10-13T14:06:52.885Z,8.02
2022-10-13T14:09:57.927Z,9.48
2022-10-13T14:13:03.883Z,8.32
2022-10-13T14:16:06.919Z,9.57
2022-10-13T14:19:10.220Z,8.00
2022-10-13T14:22:12.932Z,9.45
2022-10-13T14:25:15.295Z,9.23
2022-10-13T14:28:18.606Z,9.43
2022-10-13T14:31:20.952Z,9.13
2022-10-13T14:34:23.695Z,9.13
2022-10-13T14:37:30.318Z,9.73
2022-10-13T14:40:35.400Z,9.68
2022-10-13T14:43:37.672Z,9.18
2022-10-13T14:46:41.435Z,8.95
2022-10-13T14:49:43.626Z,10.00
2022-10-13T14:52:46.138Z,9.77
2022-10-13T14:55:48.683Z,9.30
2022-10-13T14:58:53.257Z,9.07
2022-10-13T15:01:55.496Z,8.32
2022-10-13T15:04:58.052Z,9.00
2022-10-13T15:08:00.298Z,8.52
2022-10-13T15:11:03.720Z,9.10
2022-10-13T15:14:06.109Z,9.13
2022-10-13T15:17:08.637Z,9.23
2022-10-13T15:20:11.192Z,9.73
2022-10-13T15:23:15.589Z,8.57
2022-10-13T15:26:21.754Z,10.07
2022-10-13T15:29:24.377Z,9.80
2022-10-13T15:32:26.971Z,8.45
2022-10-13T15:35:31.233Z,9.50
2022-10-13T15:38:33.604Z,9.43
2022-10-13T15:41:36.223Z,10.25
2022-10-13T15:45:08.090Z,9.32
2022-10-13T15:48:03.587Z,9.65
2022-10-13T15:51:14.049Z,8.88
2022-10-13T15:54:21.066Z,10.52
2022-10-13T15:57:23.475Z,9.93
2022-10-13T16:00:26.071Z,9.65
2022-10-13T16:03:29.901Z,9.70
2022-10-13T16:06:33.681Z,10.48
2022-10-13T16:09:36.218Z,10.50
2022-10-13T16:12:39.208Z,9.82
2022-10-13T16:15:42.659Z,10.27
2022-10-13T16:18:45.329Z,9.32
2022-10-13T16:21:47.855Z,11.20
2022-10-13T16:24:50.299Z,11.27
2022-10-13T16:27:52.817Z,11.10
2022-10-13T16:30:55.063Z,10.32
2022-10-13T16:33:57.680Z,11.32
2022-10-13T16:37:00.030Z,10.55
2022-10-13T16:40:02.575Z,10.45
2022-10-13T16:43:08.451Z,10.95
2022-10-13T16:46:14.751Z,11.15
2022-10-13T16:49:17.287Z,11.80
2022-10-13T16:52:19.807Z,10.82
2022-10-13T16:55:24.147Z,11.45
2022-10-13T16:58:26.993Z,11.00
2022-10-13T17:01:30.426Z,10.00
2022-10-13T17:04:33.379Z,10.82
2022-10-13T17:07:35.885Z,10.53
2022-10-13T17:10:38.489Z,11.18
2022-10-13T17:13:40.917Z,10.77
2022-10-13T17:16:44.214Z,11.12
2022-10-13T17:19:46.449Z,11.87
2022-10-13T17:22:49.262Z,11.48
2022-10-13T17:25:54.086Z,13.73
2022-10-13T17:28:56.730Z,16.52
2022-10-13T17:31:59.171Z,13.88
2022-10-13T17:35:01.652Z,13.95
2022-10-13T17:38:03.941Z,12.55
2022-10-13T17:41:08.199Z,12.55
2022-10-13T17:44:11.781Z,12.37
2022-10-13T17:47:14.316Z,13.80
2022-10-13T17:50:17.669Z,12.20
2022-10-13T17:53:20.481Z,12.90
2022-10-13T17:56:24.571Z,12.55
2022-10-13T17:59:27.198Z,12.85
2022-10-13T18:02:29.420Z,13.13
2022-10-13T18:05:32.538Z,13.07
2022-10-13T18:08:35.251Z,13.52
2022-10-13T18:11:38.015Z,12.80
2022-10-13T18:14:40.341Z,12.82
2022-10-13T18:17:42.840Z,14.10
2022-10-13T18:20:45.090Z,26.58
2022-10-13T18:23:47.622Z,16.60
2022-10-13T18:26:49.918Z,13.32
2022-10-13T18:29:59.341Z,13.57
2022-10-13T18:33:04.578Z,13.15
2022-10-13T18:36:21.583Z,12.83
2022-10-13T18:39:26.859Z,12.98
2022-10-13T18:42:29.477Z,12.75
2022-10-13T18:45:35.455Z,12.85
2022-10-13T18:48:38.345Z,12.05
2022-10-13T18:51:41.500Z,12.55
2022-10-13T18:54:45.499Z,12.23
2022-10-13T18:57:56.487Z,12.70
2022-10-13T19:01:01.280Z,13.38
2022-10-13T19:04:04.877Z,13.40
2022-10-13T19:07:07.561Z,14.57
2022-10-13T19:10:10.173Z,14.10
2022-10-13T19:13:12.715Z,16.42
2022-10-13T19:16:17.850Z,13.62
2022-10-13T19:19:20.357Z,12.23
2022-10-13T19:22:23.584Z,12.43
2022-10-13T19:25:26.664Z,27.35
2022-10-13T19:28:28.993Z,16.52
2022-10-13T19:31:33.394Z,13.18
2022-10-13T19:34:38.488Z,12.37
2022-10-13T19:37:41.378Z,13.20
2022-10-13T19:40:50.039Z,12.35
2022-10-13T19:43:52.605Z,11.93
2022-10-13T19:46:57.152Z,11.63
2022-10-13T19:50:02.310Z,11.95
2022-10-13T19:53:05.740Z,12.88
2022-10-13T19:56:09.392Z,12.10
2022-10-13T19:59:11.953Z,13.18
2022-10-13T20:02:14.683Z,12.35
2022-10-13T20:05:19.878Z,13.00
2022-10-13T20:08:24.475Z,12.07
2022-10-13T20:11:27.016Z,13.68
2022-10-13T20:14:29.272Z,14.45
2022-10-13T20:17:31.795Z,21.73
2022-10-13T20:20:37.590Z,17.42
2022-10-13T20:23:41.579Z,16.05
2022-10-13T20:26:43.878Z,15.48
2022-10-13T20:29:46.767Z,14.82
2022-10-13T20:32:48.984Z,15.30
2022-10-13T20:35:51.533Z,15.75
2022-10-13T20:38:56.843Z,15.45
2022-10-13T20:41:59.717Z,14.35
2022-10-13T20:45:01.932Z,14.93
2022-10-13T20:48:04.431Z,15.50
2022-10-13T20:51:11.808Z,16.33
2022-10-13T20:54:15.790Z,16.40
2022-10-13T20:57:18.247Z,16.90
2022-10-13T21:00:21.955Z,15.23
2022-10-13T21:03:25.515Z,15.38
2022-10-13T21:06:29.371Z,15.20
2022-10-13T21:09:31.982Z,15.80
2022-10-13T21:12:34.641Z,16.25
2022-10-13T21:15:39.284Z,16.23
2022-10-13T21:18:48.920Z,15.50
2022-10-13T21:21:51.368Z,16.02
2022-10-13T21:24:54.076Z,16.30
2022-10-13T21:27:56.634Z,16.00
2022-10-13T21:31:04.218Z,16.58
2022-10-13T21:34:06.554Z,16.37
2022-10-13T21:37:09.080Z,16.15
2022-10-13T21:40:11.511Z,15.75
2022-10-13T21:43:14.037Z,16.75
2022-10-13T21:46:25.084Z,16.25
2022-10-13T21:49:27.943Z,16.20
2022-10-13T21:52:30.454Z,16.08
2022-10-13T21:55:33.161Z,15.10
2022-10-13T21:58:35.865Z,16.45
2022-10-13T22:01:38.770Z,18.60
2022-10-13T22:04:43.734Z,17.17
2022-10-13T22:07:45.987Z,17.52
2022-10-13T22:10:48.494Z,16.33
2022-10-13T22:13:51.239Z,16.55
2022-10-13T22:16:53.776Z,15.73
2022-10-13T22:19:55.991Z,16.02
2022-10-13T22:22:58.509Z,15.82
2022-10-13T22:26:00.746Z,16.37
2022-10-13T22:29:05.824Z,15.45
2022-10-13T22:32:08.296Z,15.43
2022-10-13T22:35:10.938Z,15.85
2022-10-13T22:38:14.419Z,16.75
2022-10-13T22:41:18.485Z,15.80
2022-10-13T22:44:21.208Z,16.33
2022-10-13T22:47:25.092Z,16.05
2022-10-13T22:50:27.718Z,17.23
2022-10-13T22:53:31.730Z,17.05
2022-10-13T22:56:34.926Z,17.12
2022-10-13T22:59:37.789Z,17.87
2022-10-13T23:02:40.030Z,17.80
2022-10-13T23:05:46.190Z,17.15
2022-10-13T23:08:49.257Z,19.33
2022-10-13T23:11:54.155Z,19.62
2022-10-13T23:15:00.303Z,17.05
2022-10-13T23:18:02.829Z,18.70
2022-10-13T23:21:11.907Z,18.15
2022-10-13T23:24:14.567Z,17.80
2022-10-13T23:27:17.026Z,18.25
2022-10-13T23:30:19.555Z,17.90
2022-10-13T23:33:21.801Z,19.00
2022-10-13T23:36:26.621Z,18.48
2022-10-13T23:39:29.614Z,17.77
2022-10-13T23:42:32.279Z,18.20
2022-10-13T23:45:34.484Z,18.12
2022-10-13T23:48:38.055Z,19.17
2022-10-13T23:51:43.154Z,18.20
2022-10-13T23:54:45.857Z,18.08
2022-10-13T23:57:48.789Z,18.33
